Time,TemperatureF,DewpointF,PressureIn,WindDirection,WindDirectionDegrees,WindSpeedMPH,WindSpeedGustMPH,Humidity,HourlyPrecipIn,Conditions,Clouds,dailyrainin,SoftwareType,DateUTC
2013-01-10 00:00:00,40.6,32.0,30.09,NW,325,2.0,5.0,71,0.00,,CLR,0.00,VWS V14.00,2013-01-10 05:00:00,
2013-01-10 00:01:00,40.6,32.0,30.09,NNW,341,2.0,5.0,71,0.00,,CLR,0.00,VWS V14.00,2013-01-10 05:01:00,
2013-01-10 00:02:00,40.6,32.0,30.09,NW,304,3.0,4.0,71,0.00,,CLR,0.00,VWS V14.00,2013-01-10 05:02:00,
2013-01-10 00:07:00,40.6,32.0,30.09,WNW,296,0.0,4.0,71,0.00,,CLR,0.00,VWS V14.00,2013-01-10 05:07:00,
2013-01-10 00:12:00,40.5,31.9,30.09,NW,319,0.0,4.0,71,0.00,,CLR,0.00,VWS V14.00,2013-01-10 05:12:00,
2013-01-10 00:17:00,40.5,31.5,30.09,North,350,4.0,5.0,70,0.00,,CLR,0.00,VWS V14.00,2013-01-10 05:17:00,
2013-01-10 00:22:00,40.3,31.3,30.09,West,269,5.0,9.0,70,0.00,,CLR,0.00,VWS V14.00,2013-01-10 05:22:00,
2013-01-10 00:27:00,40.3,30.6,30.09,WNW,299,2.0,4.0,68,0.00,,CLR,0.00,VWS V14.00,2013-01-10 05:27:00,
2013-01-10 00:32:00,40.3,30.6,30.10,WNW,288,2.0,4.0,68,0.00,,CLR,0.00,VWS V14.00,2013-01-10 05:32:00,
2013-01-10 00:37:00,40.3,30.2,30.10,NW,304,0.0,4.0,67,0.00,,CLR,0.00,VWS V14.00,2013-01-10 05:37:00,
2013-01-10 00:42:00,40.5,30.0,30.10,WNW,295,2.0,5.0,66,0.00,,CLR,0.00,VWS V14.00,2013-01-10 05:42:00,
2013-01-10 00:47:00,40.5,29.7,30.10,SSW,205,2.0,2.0,65,0.00,,CLR,0.00,VWS V14.00,2013-01-10 05:47:00,
2013-01-10 00:52:00,40.3,29.5,30.10,WNW,291,4.0,4.0,65,0.00,,CLR,0.00,VWS V14.00,2013-01-10 05:52:00,
2013-01-10 00:57:00,40.3,29.1,30.10,WNW,288,6.0,7.0,64,0.00,,CLR,0.00,VWS V14.00,2013-01-10 05:57:00,
2013-01-10 01:02:00,40.3,29.1,30.10,SW,234,3.0,9.0,64,0.00,,CLR,0.00,VWS V14.00,2013-01-10 06:02:00,
2013-01-10 01:07:00,40.5,28.9,30.10,WNW,300,4.0,10.0,63,0.00,,CLR,0.00,VWS V14.00,2013-01-10 06:07:00,
2013-01-10 01:12:00,40.5,28.9,30.10,West,270,3.0,9.0,63,0.00,,CLR,0.00,VWS V14.00,2013-01-10 06:12:00,
2013-01-10 01:17:00,40.5,28.5,30.11,WNW,283,1.0,10.0,62,0.00,,CLR,0.00,VWS V14.00,2013-01-10 06:17:00,
2013-01-10 01:22:00,40.5,28.1,30.11,West,277,5.0,17.0,61,0.00,,CLR,0.00,VWS V14.00,2013-01-10 06:22:00,
2013-01-10 01:27:00,40.5,27.7,30.11,NW,309,8.0,11.0,60,0.00,,CLR,0.00,VWS V14.00,2013-01-10 06:27:00,
2013-01-10 01:32:00,40.5,27.7,30.12,WNW,294,7.0,13.0,60,0.00,,CLR,0.00,VWS V14.00,2013-01-10 06:32:00,
2013-01-10 01:37:00,40.5,27.3,30.12,WNW,294,10.0,12.0,59,0.00,,CLR,0.00,VWS V14.00,2013-01-10 06:37:00,
2013-01-10 01:42:00,40.5,27.3,30.12,WNW,300,6.0,15.0,59,0.00,,CLR,0.00,VWS V14.00,2013-01-10 06:42:00,
2013-01-10 01:47:00,40.6,27.4,30.13,West,268,7.0,12.0,59,0.00,,CLR,0.00,VWS V14.00,2013-01-10 06:47:00,
2013-01-10 01:52:00,40.5,27.3,30.13,WNW,299,3.0,7.0,59,0.00,,CLR,0.00,VWS V14.00,2013-01-10 06:52:00,
2013-01-10 01:57:00,40.3,27.1,30.13,WNW,288,6.0,10.0,59,0.00,,CLR,0.00,VWS V14.00,2013-01-10 06:57:00,
2013-01-10 02:02:00,40.3,27.5,30.15,NW,310,5.0,9.0,60,0.00,,CLR,0.00,VWS V14.00,2013-01-10 07:02:00,
2013-01-10 02:07:00,40.2,27.4,30.15,NW,307,1.0,5.0,60,0.00,,CLR,0.00,VWS V14.00,2013-01-10 07:07:00,
2013-01-10 02:12:00,40.1,27.4,30.15,NW,319,3.0,4.0,60,0.00,,CLR,0.00,VWS V14.00,2013-01-10 07:12:00,
2013-01-10 02:17:00,39.8,27.1,30.17,WNW,296,9.0,12.0,60,0.00,,CLR,0.00,VWS V14.00,2013-01-10 07:17:00,
2013-01-10 02:22:00,39.8,26.2,30.17,NW,315,3.0,4.0,58,0.00,,CLR,0.00,VWS V14.00,2013-01-10 07:22:00,
2013-01-10 02:27:00,39.8,25.8,30.17,NNW,329,5.0,6.0,57,0.00,,CLR,0.00,VWS V14.00,2013-01-10 07:27:00,
2013-01-10 02:32:00,39.6,25.2,30.17,NW,310,5.0,5.0,56,0.00,,CLR,0.00,VWS V14.00,2013-01-10 07:32:00,
2013-01-10 02:37:00,39.6,24.3,30.17,NW,306,6.0,9.0,54,0.00,,CLR,0.00,VWS V14.00,2013-01-10 07:37:00,
2013-01-10 02:42:00,39.6,23.9,30.17,NNW,346,3.0,6.0,53,0.00,,CLR,0.00,VWS V14.00,2013-01-10 07:42:00,
2013-01-10 02:47:00,39.5,23.4,30.18,NNW,328,2.0,5.0,52,0.00,,CLR,0.00,VWS V14.00,2013-01-10 07:47:00,
2013-01-10 02:52:00,39.5,22.4,30.18,WNW,297,6.0,6.0,50,0.00,,CLR,0.00,VWS V14.00,2013-01-10 07:52:00,
2013-01-10 02:57:00,39.6,22.0,30.18,WNW,286,7.0,7.0,49,0.00,,CLR,0.00,VWS V14.00,2013-01-10 07:57:00,
2013-01-10 03:02:00,39.6,22.0,30.18,NW,307,2.0,5.0,49,0.00,,CLR,0.00,VWS V14.00,2013-01-10 08:02:00,
2013-01-10 03:07:00,39.6,21.5,30.18,NW,305,7.0,7.0,48,0.00,,CLR,0.00,VWS V14.00,2013-01-10 08:07:00,
2013-01-10 03:12:00,39.6,21.5,30.18,NW,305,10.0,12.0,48,0.00,,CLR,0.00,VWS V14.00,2013-01-10 08:12:00,
2013-01-10 03:17:00,39.8,21.2,30.19,NW,319,3.0,7.0,47,0.00,,CLR,0.00,VWS V14.00,2013-01-10 08:17:00,
2013-01-10 03:22:00,39.8,21.2,30.19,West,280,1.0,2.0,47,0.00,,CLR,0.00,VWS V14.00,2013-01-10 08:22:00,
2013-01-10 03:27:00,39.8,21.2,30.19,NW,309,3.0,4.0,47,0.00,,CLR,0.00,VWS V14.00,2013-01-10 08:27:00,
2013-01-10 03:32:00,39.6,21.5,30.20,WNW,295,2.0,4.0,48,0.00,,CLR,0.00,VWS V14.00,2013-01-10 08:32:00,
2013-01-10 03:37:00,39.5,21.5,30.20,NW,315,2.0,6.0,48,0.00,,CLR,0.00,VWS V14.00,2013-01-10 08:37:00,
2013-01-10 03:42:00,39.5,21.5,30.20,NW,321,3.0,5.0,48,0.00,,CLR,0.00,VWS V14.00,2013-01-10 08:42:00,
2013-01-10 03:47:00,39.3,21.3,30.20,NW,311,5.0,6.0,48,0.00,,CLR,0.00,VWS V14.00,2013-01-10 08:47:00,
2013-01-10 03:53:00,39.3,21.3,30.20,NW,306,3.0,4.0,48,0.00,,CLR,0.00,VWS V14.00,2013-01-10 08:53:00,
2013-01-10 03:58:00,39.2,21.7,30.20,WNW,284,2.0,5.0,49,0.00,,CLR,0.00,VWS V14.00,2013-01-10 08:58:00,
2013-01-10 04:03:00,39.1,21.6,30.20,WNW,295,4.0,5.0,49,0.00,,CLR,0.00,VWS V14.00,2013-01-10 09:03:00,
2013-01-10 04:08:00,38.9,21.4,30.20,WNW,295,6.0,6.0,49,0.00,,CLR,0.00,VWS V14.00,2013-01-10 09:08:00,
2013-01-10 04:13:00,38.9,21.9,30.20,NW,313,4.0,6.0,50,0.00,,CLR,0.00,VWS V14.00,2013-01-10 09:13:00,
2013-01-10 04:18:00,38.8,21.8,30.21,NW,319,3.0,7.0,50,0.00,,CLR,0.00,VWS V14.00,2013-01-10 09:18:00,
2013-01-10 04:23:00,38.8,22.2,30.21,WNW,300,6.0,10.0,51,0.00,,CLR,0.00,VWS V14.00,2013-01-10 09:23:00,
2013-01-10 04:28:00,38.8,22.2,30.21,NNW,336,3.0,4.0,51,0.00,,CLR,0.00,VWS V14.00,2013-01-10 09:28:00,
2013-01-10 04:33:00,38.6,22.5,30.21,NNW,335,3.0,6.0,52,0.00,,CLR,0.00,VWS V14.00,2013-01-10 09:33:00,
2013-01-10 04:38:00,38.6,22.5,30.21,WNW,295,1.0,2.0,52,0.00,,CLR,0.00,VWS V14.00,2013-01-10 09:38:00,
2013-01-10 04:43:00,38.5,22.4,30.21,NW,304,2.0,3.0,52,0.00,,CLR,0.00,VWS V14.00,2013-01-10 09:43:00,
2013-01-10 04:48:00,38.3,22.2,30.23,NW,314,0.0,1.0,52,0.00,,CLR,0.00,VWS V14.00,2013-01-10 09:48:00,
2013-01-10 04:53:00,38.3,22.7,30.23,WNW,286,2.0,2.0,53,0.00,,CLR,0.00,VWS V14.00,2013-01-10 09:53:00,
2013-01-10 04:58:00,38.2,22.6,30.23,WNW,299,2.0,5.0,53,0.00,,CLR,0.00,VWS V14.00,2013-01-10 09:58:00,
2013-01-10 05:03:00,38.0,22.4,30.23,WNW,299,1.0,4.0,53,0.00,,CLR,0.00,VWS V14.00,2013-01-10 10:03:00,
2013-01-10 05:08:00,37.9,22.8,30.23,WNW,300,3.0,5.0,54,0.00,,CLR,0.00,VWS V14.00,2013-01-10 10:08:00,
2013-01-10 05:13:00,37.6,22.9,30.23,NW,310,2.0,3.0,55,0.00,,CLR,0.00,VWS V14.00,2013-01-10 10:13:00,
2013-01-10 05:18:00,37.5,22.8,30.24,NW,310,0.0,1.0,55,0.00,,CLR,0.00,VWS V14.00,2013-01-10 10:18:00,
2013-01-10 05:23:00,37.3,23.1,30.24,NW,316,0.0,4.0,56,0.00,,CLR,0.00,VWS V14.00,2013-01-10 10:23:00,
2013-01-10 05:28:00,37.2,23.0,30.24,NW,316,0.0,2.0,56,0.00,,CLR,0.00,VWS V14.00,2013-01-10 10:28:00,
2013-01-10 05:33:00,36.9,22.7,30.25,NW,304,0.0,3.0,56,0.00,,CLR,0.00,VWS V14.00,2013-01-10 10:33:00,
2013-01-10 05:38:00,36.8,22.2,30.25,NW,309,5.0,8.0,55,0.00,,CLR,0.00,VWS V14.00,2013-01-10 10:38:00,
2013-01-10 05:43:00,36.8,21.7,30.25,West,273,3.0,5.0,54,0.00,,CLR,0.00,VWS V14.00,2013-01-10 10:43:00,
2013-01-10 05:48:00,36.8,21.3,30.25,WNW,288,5.0,9.0,53,0.00,,CLR,0.00,VWS V14.00,2013-01-10 10:48:00,
2013-01-10 05:53:00,36.9,20.5,30.25,WNW,289,4.0,14.0,51,0.00,,CLR,0.00,VWS V14.00,2013-01-10 10:53:00,
2013-01-10 05:58:00,37.0,20.1,30.25,WNW,290,11.0,16.0,50,0.00,,CLR,0.00,VWS V14.00,2013-01-10 10:58:00,
2013-01-10 06:03:00,37.2,19.8,30.26,WNW,292,8.0,12.0,49,0.00,,CLR,0.00,VWS V14.00,2013-01-10 11:03:00,
2013-01-10 06:08:00,37.3,19.9,30.26,WNW,300,7.0,10.0,49,0.00,,CLR,0.00,VWS V14.00,2013-01-10 11:08:00,
2013-01-10 06:13:00,37.3,19.9,30.26,NW,321,5.0,7.0,49,0.00,,CLR,0.00,VWS V14.00,2013-01-10 11:13:00,
2013-01-10 06:19:00,37.2,19.8,30.27,WNW,284,5.0,10.0,49,0.00,,CLR,0.00,VWS V14.00,2013-01-10 11:19:00,
2013-01-10 06:24:00,37.0,20.1,30.27,WNW,296,2.0,3.0,50,0.00,,CLR,0.00,VWS V14.00,2013-01-10 11:24:00,
2013-01-10 06:29:00,37.0,20.1,30.27,NNW,332,4.0,9.0,50,0.00,,CLR,0.00,VWS V14.00,2013-01-10 11:29:00,
2013-01-10 06:34:00,36.9,20.0,30.29,NNW,327,4.0,7.0,50,0.00,,CLR,0.00,VWS V14.00,2013-01-10 11:34:00,
2013-01-10 06:39:00,36.9,20.0,30.29,NW,316,0.0,5.0,50,0.00,,CLR,0.00,VWS V14.00,2013-01-10 11:39:00,
2013-01-10 06:44:00,36.8,19.9,30.29,NW,304,7.0,10.0,50,0.00,,CLR,0.00,VWS V14.00,2013-01-10 11:44:00,
2013-01-10 06:49:00,36.8,20.4,30.29,NW,309,11.0,11.0,51,0.00,,FEW048,0.00,VWS V14.00,2013-01-10 11:49:00,
2013-01-10 06:54:00,36.6,20.2,30.29,NW,311,12.0,15.0,51,0.00,,FEW048,0.00,VWS V14.00,2013-01-10 11:54:00,
2013-01-10 06:59:00,36.6,20.2,30.29,WNW,297,9.0,10.0,51,0.00,,FEW048,0.00,VWS V14.00,2013-01-10 11:59:00,
2013-01-10 07:04:00,36.6,20.2,30.30,NW,311,7.0,9.0,51,0.00,,FEW048,0.00,VWS V14.00,2013-01-10 12:04:00,
2013-01-10 07:09:00,36.6,20.2,30.30,NW,306,6.0,7.0,51,0.00,,FEW048,0.00,VWS V14.00,2013-01-10 12:09:00,
2013-01-10 07:14:00,36.6,20.2,30.30,WNW,291,2.0,4.0,51,0.00,,FEW048,0.00,VWS V14.00,2013-01-10 12:14:00,
2013-01-10 07:19:00,36.5,20.6,30.32,WNW,298,2.0,2.0,52,0.00,,FEW048,0.00,VWS V14.00,2013-01-10 12:19:00,
2013-01-10 07:24:00,36.5,20.6,30.32,WNW,291,5.0,5.0,52,0.00,,FEW048,0.00,VWS V14.00,2013-01-10 12:24:00,
2013-01-10 07:29:00,36.5,20.6,30.32,NW,306,3.0,4.0,52,0.00,,FEW048,0.00,VWS V14.00,2013-01-10 12:29:00,
2013-01-10 07:34:00,36.5,20.6,30.34,North,5,4.0,7.0,52,0.00,,FEW048,0.00,VWS V14.00,2013-01-10 12:34:00,
2013-01-10 07:39:00,36.3,20.4,30.34,WNW,303,3.0,5.0,52,0.00,,FEW048,0.00,VWS V14.00,2013-01-10 12:39:00,
2013-01-10 07:44:00,36.3,20.8,30.34,NNW,329,5.0,7.0,53,0.00,,FEW048,0.00,VWS V14.00,2013-01-10 12:44:00,
2013-01-10 07:49:00,36.2,20.7,30.34,NNE,26,1.0,7.0,53,0.00,,FEW048,0.00,VWS V14.00,2013-01-10 12:49:00,
2013-01-10 07:54:00,36.2,20.7,30.34,WNW,296,4.0,10.0,53,0.00,,FEW048,0.00,VWS V14.00,2013-01-10 12:54:00,
2013-01-10 07:59:00,36.2,20.7,30.34,WNW,298,4.0,15.0,53,0.00,,FEW048,0.00,VWS V14.00,2013-01-10 12:59:00,
2013-01-10 08:04:00,36.2,20.7,30.35,WNW,292,2.0,6.0,53,0.00,,CLR,0.00,VWS V14.00,2013-01-10 13:04:00,
2013-01-10 08:09:00,36.2,20.7,30.35,NW,319,0.0,4.0,53,0.00,,CLR,0.00,VWS V14.00,2013-01-10 13:09:00,
2013-01-10 08:14:00,36.2,20.7,30.35,WSW,251,1.0,5.0,53,0.00,,CLR,0.00,VWS V14.00,2013-01-10 13:14:00,
2013-01-10 08:19:00,36.2,20.7,30.36,WNW,300,2.0,4.0,53,0.00,,CLR,0.00,VWS V14.00,2013-01-10 13:19:00,
2013-01-10 08:24:00,36.2,20.7,30.36,WNW,300,0.0,1.0,53,0.00,,CLR,0.00,VWS V14.00,2013-01-10 13:24:00,
2013-01-10 08:29:00,36.2,20.7,30.36,WNW,300,0.0,3.0,53,0.00,,CLR,0.00,VWS V14.00,2013-01-10 13:29:00,
2013-01-10 08:34:00,36.2,20.7,30.37,NW,309,2.0,5.0,53,0.00,,CLR,0.00,VWS V14.00,2013-01-10 13:34:00,
2013-01-10 08:39:00,36.5,21.0,30.37,WNW,294,3.0,6.0,53,0.00,,CLR,0.00,VWS V14.00,2013-01-10 13:39:00,
2013-01-10 08:44:00,36.6,21.1,30.37,WNW,302,9.0,11.0,53,0.00,,CLR,0.00,VWS V14.00,2013-01-10 13:44:00,
2013-01-10 08:49:00,36.8,20.8,30.37,WNW,300,2.0,6.0,52,0.00,,CLR,0.00,VWS V14.00,2013-01-10 13:49:00,
2013-01-10 08:54:00,37.0,21.0,30.37,WNW,283,2.0,6.0,52,0.00,,CLR,0.00,VWS V14.00,2013-01-10 13:54:00,
2013-01-10 08:59:00,37.2,20.8,30.37,WNW,294,0.0,4.0,51,0.00,,CLR,0.00,VWS V14.00,2013-01-10 13:59:00,
2013-01-10 09:04:00,37.5,21.0,30.38,WNW,294,0.0,3.0,51,0.00,,CLR,0.00,VWS V14.00,2013-01-10 14:04:00,
2013-01-10 09:09:00,37.6,21.1,30.38,WNW,293,1.0,4.0,51,0.00,,CLR,0.00,VWS V14.00,2013-01-10 14:09:00,
2013-01-10 09:14:00,37.9,21.4,30.38,WNW,284,1.0,7.0,51,0.00,,CLR,0.00,VWS V14.00,2013-01-10 14:14:00,
2013-01-10 09:19:00,37.9,20.9,30.38,WNW,288,9.0,10.0,50,0.00,,CLR,0.00,VWS V14.00,2013-01-10 14:19:00,
2013-01-10 09:24:00,38.2,21.2,30.38,West,267,7.0,10.0,50,0.00,,CLR,0.00,VWS V14.00,2013-01-10 14:24:00,
2013-01-10 09:29:00,38.2,21.2,30.38,WNW,291,9.0,10.0,50,0.00,,CLR,0.00,VWS V14.00,2013-01-10 14:29:00,
2013-01-10 09:34:00,38.3,20.8,30.39,West,263,9.0,15.0,49,0.00,,CLR,0.00,VWS V14.00,2013-01-10 14:34:00,
2013-01-10 09:39:00,38.5,21.0,30.39,West,259,5.0,6.0,49,0.00,,CLR,0.00,VWS V14.00,2013-01-10 14:39:00,
2013-01-10 09:44:00,38.6,21.1,30.39,WNW,286,10.0,11.0,49,0.00,,CLR,0.00,VWS V14.00,2013-01-10 14:44:00,
2013-01-10 09:49:00,38.9,21.4,30.38,WNW,285,5.0,13.0,49,0.00,,CLR,0.00,VWS V14.00,2013-01-10 14:49:00,
2013-01-10 09:54:00,39.2,21.7,30.38,West,268,3.0,10.0,49,0.00,,CLR,0.00,VWS V14.00,2013-01-10 14:54:00,
2013-01-10 09:59:00,39.3,21.3,30.38,WSW,256,4.0,9.0,48,0.00,,CLR,0.00,VWS V14.00,2013-01-10 14:59:00,
2013-01-10 10:04:00,39.6,21.5,30.40,WNW,293,7.0,14.0,48,0.00,,CLR,0.00,VWS V14.00,2013-01-10 15:04:00,
2013-01-10 10:09:00,39.9,20.8,30.40,West,278,7.0,10.0,46,0.00,,CLR,0.00,VWS V14.00,2013-01-10 15:09:00,
2013-01-10 10:14:00,39.9,20.8,30.40,WNW,288,6.0,7.0,46,0.00,,CLR,0.00,VWS V14.00,2013-01-10 15:14:00,
2013-01-10 10:19:00,40.2,21.1,30.40,WNW,303,7.0,13.0,46,0.00,,CLR,0.00,VWS V14.00,2013-01-10 15:19:00,
2013-01-10 10:24:00,40.5,20.9,30.40,WNW,298,6.0,12.0,45,0.00,,CLR,0.00,VWS V14.00,2013-01-10 15:24:00,
2013-01-10 10:29:00,40.3,20.7,30.40,WNW,293,7.0,9.0,45,0.00,,CLR,0.00,VWS V14.00,2013-01-10 15:29:00,
2013-01-10 10:34:00,40.6,20.4,30.40,WNW,302,12.0,18.0,44,0.00,,CLR,0.00,VWS V14.00,2013-01-10 15:34:00,
2013-01-10 10:39:00,40.6,19.9,30.40,WNW,300,9.0,15.0,43,0.00,,CLR,0.00,VWS V14.00,2013-01-10 15:39:00,
2013-01-10 10:44:00,40.8,20.0,30.40,WNW,299,9.0,12.0,43,0.00,,CLR,0.00,VWS V14.00,2013-01-10 15:44:00,
2013-01-10 10:49:00,41.1,20.3,30.39,NNW,348,8.0,18.0,43,0.00,,CLR,0.00,VWS V14.00,2013-01-10 15:49:00,
2013-01-10 10:54:00,40.9,20.1,30.39,WNW,284,3.0,10.0,43,0.00,,CLR,0.00,VWS V14.00,2013-01-10 15:54:00,
2013-01-10 10:59:00,41.1,20.3,30.39,WNW,285,8.0,14.0,43,0.00,,CLR,0.00,VWS V14.00,2013-01-10 15:59:00,
2013-01-10 11:04:00,40.9,20.1,30.39,WNW,288,18.0,18.0,43,0.00,,CLR,0.00,VWS V14.00,2013-01-10 16:04:00,
2013-01-10 11:09:00,40.9,20.1,30.39,West,279,11.0,17.0,43,0.00,,CLR,0.00,VWS V14.00,2013-01-10 16:09:00,
2013-01-10 11:14:00,40.9,20.1,30.39,NNW,331,15.0,15.0,43,0.00,,CLR,0.00,VWS V14.00,2013-01-10 16:14:00,
2013-01-10 11:19:00,41.1,20.9,30.39,WNW,284,5.0,7.0,44,0.00,,CLR,0.00,VWS V14.00,2013-01-10 16:19:00,
2013-01-10 11:24:00,41.3,20.5,30.39,NW,311,11.0,14.0,43,0.00,,CLR,0.00,VWS V14.00,2013-01-10 16:24:00,
2013-01-10 11:30:00,41.5,21.2,30.38,NW,306,5.0,17.0,44,0.00,,CLR,0.00,VWS V14.00,2013-01-10 16:30:00,
2013-01-10 11:34:00,41.3,20.0,30.38,WNW,288,12.0,16.0,42,0.00,,CLR,0.00,VWS V14.00,2013-01-10 16:34:00,
2013-01-10 11:39:00,41.3,20.5,30.38,NW,308,12.0,13.0,43,0.00,,CLR,0.00,VWS V14.00,2013-01-10 16:39:00,
2013-01-10 11:45:00,41.2,19.9,30.37,WNW,292,15.0,15.0,42,0.00,,CLR,0.00,VWS V14.00,2013-01-10 16:45:00,
2013-01-10 11:50:00,41.2,20.4,30.37,NW,310,16.0,16.0,43,0.00,,CLR,0.00,VWS V14.00,2013-01-10 16:50:00,
2013-01-10 11:55:00,41.2,20.4,30.37,NW,304,6.0,20.0,43,0.00,,CLR,0.00,VWS V14.00,2013-01-10 16:55:00,
2013-01-10 12:00:00,41.2,20.4,30.36,NW,314,8.0,12.0,43,0.00,,CLR,0.00,VWS V14.00,2013-01-10 17:00:00,
2013-01-10 12:05:00,41.6,20.8,30.36,WNW,298,9.0,9.0,43,0.00,,CLR,0.00,VWS V14.00,2013-01-10 17:05:00,
2013-01-10 12:10:00,41.8,19.8,30.36,WNW,302,11.0,15.0,41,0.00,,CLR,0.00,VWS V14.00,2013-01-10 17:10:00,
2013-01-10 12:15:00,41.6,20.2,30.35,WNW,290,9.0,13.0,42,0.00,,CLR,0.00,VWS V14.00,2013-01-10 17:15:00,
2013-01-10 12:20:00,41.8,20.4,30.35,WNW,293,5.0,5.0,42,0.00,,CLR,0.00,VWS V14.00,2013-01-10 17:20:00,
2013-01-10 12:25:00,42.1,20.7,30.35,NW,311,2.0,11.0,42,0.00,,CLR,0.00,VWS V14.00,2013-01-10 17:25:00,
2013-01-10 12:30:00,42.2,20.8,30.35,NW,321,1.0,4.0,42,0.00,,CLR,0.00,VWS V14.00,2013-01-10 17:30:00,
2013-01-10 12:35:00,42.5,20.5,30.35,WNW,285,4.0,7.0,41,0.00,,CLR,0.00,VWS V14.00,2013-01-10 17:35:00,
2013-01-10 12:40:00,42.3,20.3,30.35,West,259,6.0,14.0,41,0.00,,CLR,0.00,VWS V14.00,2013-01-10 17:40:00,
2013-01-10 12:45:00,42.3,20.9,30.35,NW,311,3.0,6.0,42,0.00,,CLR,0.00,VWS V14.00,2013-01-10 17:45:00,
2013-01-10 12:50:00,42.8,20.2,30.35,WNW,292,10.0,17.0,40,0.00,,CLR,0.00,VWS V14.00,2013-01-10 17:50:00,
2013-01-10 12:55:00,42.9,20.3,30.35,WNW,302,7.0,7.0,40,0.00,,CLR,0.00,VWS V14.00,2013-01-10 17:55:00,
2013-01-10 13:00:00,43.1,20.4,30.35,NW,325,6.0,6.0,40,0.00,,CLR,0.00,VWS V14.00,2013-01-10 18:00:00,
2013-01-10 13:05:00,43.2,20.5,30.35,WNW,302,5.0,10.0,40,0.00,,CLR,0.00,VWS V14.00,2013-01-10 18:05:00,
2013-01-10 13:10:00,43.1,21.0,30.35,West,281,8.0,11.0,41,0.00,,CLR,0.00,VWS V14.00,2013-01-10 18:10:00,
2013-01-10 13:15:00,43.1,20.4,30.36,WNW,294,7.0,7.0,40,0.00,,CLR,0.00,VWS V14.00,2013-01-10 18:15:00,
2013-01-10 13:20:00,43.1,21.0,30.36,NW,304,4.0,7.0,41,0.00,,CLR,0.00,VWS V14.00,2013-01-10 18:20:00,
2013-01-10 13:25:00,43.2,20.5,30.36,NNE,19,4.0,7.0,40,0.00,,CLR,0.00,VWS V14.00,2013-01-10 18:25:00,
2013-01-10 13:30:00,43.2,20.5,30.36,WNW,284,5.0,12.0,40,0.00,,CLR,0.00,VWS V14.00,2013-01-10 18:30:00,
2013-01-10 13:35:00,43.1,20.4,30.36,WNW,296,10.0,10.0,40,0.00,,CLR,0.00,VWS V14.00,2013-01-10 18:35:00,
2013-01-10 13:40:00,43.1,21.0,30.36,NW,304,1.0,6.0,41,0.00,,CLR,0.00,VWS V14.00,2013-01-10 18:40:00,
2013-01-10 13:45:00,42.9,20.3,30.36,NW,309,8.0,17.0,40,0.00,,CLR,0.00,VWS V14.00,2013-01-10 18:45:00,
2013-01-10 13:50:00,42.8,20.8,30.36,NW,306,5.0,11.0,41,0.00,,CLR,0.00,VWS V14.00,2013-01-10 18:50:00,
2013-01-10 13:55:00,42.9,20.8,30.36,NW,315,4.0,6.0,41,0.00,,CLR,0.00,VWS V14.00,2013-01-10 18:55:00,
2013-01-10 14:00:00,43.2,21.1,30.36,WNW,294,9.0,12.0,41,0.00,,CLR,0.00,VWS V14.00,2013-01-10 19:00:00,
2013-01-10 14:05:00,43.3,20.6,30.36,WNW,287,13.0,14.0,40,0.00,,CLR,0.00,VWS V14.00,2013-01-10 19:05:00,
2013-01-10 14:10:00,43.3,21.2,30.36,West,281,2.0,4.0,41,0.00,,CLR,0.00,VWS V14.00,2013-01-10 19:10:00,
2013-01-10 14:15:00,43.8,22.2,30.37,WNW,299,0.0,4.0,42,0.00,,CLR,0.00,VWS V14.00,2013-01-10 19:15:00,
2013-01-10 14:20:00,44.1,21.9,30.37,NE,45,3.0,5.0,41,0.00,,CLR,0.00,VWS V14.00,2013-01-10 19:20:00,
2013-01-10 14:25:00,43.9,21.7,30.37,NW,309,7.0,8.0,41,0.00,,CLR,0.00,VWS V14.00,2013-01-10 19:25:00,
2013-01-10 14:30:00,43.9,21.7,30.37,WNW,300,4.0,5.0,41,0.00,,CLR,0.00,VWS V14.00,2013-01-10 19:30:00,
2013-01-10 14:35:00,43.8,21.6,30.37,NE,47,3.0,8.0,41,0.00,,CLR,0.00,VWS V14.00,2013-01-10 19:35:00,
2013-01-10 14:40:00,43.6,21.5,30.37,NW,306,4.0,7.0,41,0.00,,CLR,0.00,VWS V14.00,2013-01-10 19:40:00,
2013-01-10 14:45:00,43.6,21.5,30.36,WNW,287,7.0,10.0,41,0.00,,CLR,0.00,VWS V14.00,2013-01-10 19:45:00,
2013-01-10 14:50:00,43.6,21.5,30.36,WSW,249,0.0,5.0,41,0.00,,CLR,0.00,VWS V14.00,2013-01-10 19:50:00,
2013-01-10 14:55:00,43.6,22.0,30.36,WNW,293,7.0,9.0,42,0.00,,CLR,0.00,VWS V14.00,2013-01-10 19:55:00,
2013-01-10 15:00:00,43.5,21.4,30.37,WNW,294,10.0,14.0,41,0.00,,CLR,0.00,VWS V14.00,2013-01-10 20:00:00,
2013-01-10 15:05:00,43.1,21.0,30.37,WNW,301,8.0,13.0,41,0.00,,CLR,0.00,VWS V14.00,2013-01-10 20:05:00,
2013-01-10 15:10:00,43.1,21.0,30.37,North,9,5.0,13.0,41,0.00,,CLR,0.00,VWS V14.00,2013-01-10 20:10:00,
2013-01-10 15:15:00,43.1,21.0,30.38,WNW,286,4.0,6.0,41,0.00,,CLR,0.00,VWS V14.00,2013-01-10 20:15:00,
2013-01-10 15:20:00,42.9,21.4,30.38,NW,308,7.0,7.0,42,0.00,,CLR,0.00,VWS V14.00,2013-01-10 20:20:00,
2013-01-10 15:25:00,43.1,21.0,30.38,NW,313,4.0,6.0,41,0.00,,CLR,0.00,VWS V14.00,2013-01-10 20:25:00,
2013-01-10 15:30:00,43.2,21.7,30.39,NW,322,4.0,11.0,42,0.00,,CLR,0.00,VWS V14.00,2013-01-10 20:30:00,
2013-01-10 15:35:00,43.1,21.6,30.39,NNW,334,9.0,11.0,42,0.00,,CLR,0.00,VWS V14.00,2013-01-10 20:35:00,
2013-01-10 15:40:00,43.1,21.6,30.39,NNW,329,3.0,7.0,42,0.00,,CLR,0.00,VWS V14.00,2013-01-10 20:40:00,
2013-01-10 15:45:00,42.8,21.3,30.40,WNW,300,6.0,12.0,42,0.00,,CLR,0.00,VWS V14.00,2013-01-10 20:45:00,
2013-01-10 15:50:00,42.6,21.1,30.40,NW,314,5.0,13.0,42,0.00,,CLR,0.00,VWS V14.00,2013-01-10 20:50:00,
2013-01-10 15:55:00,42.5,21.0,30.40,WNW,290,5.0,10.0,42,0.00,,CLR,0.00,VWS V14.00,2013-01-10 20:55:00,
2013-01-10 16:00:00,42.3,20.9,30.40,NNW,328,9.0,14.0,42,0.00,,CLR,0.00,VWS V14.00,2013-01-10 21:00:00,
2013-01-10 16:06:00,42.1,21.2,30.40,WNW,302,5.0,12.0,43,0.00,,CLR,0.00,VWS V14.00,2013-01-10 21:06:00,
2013-01-10 16:11:00,41.9,21.0,30.40,WNW,300,15.0,15.0,43,0.00,,CLR,0.00,VWS V14.00,2013-01-10 21:11:00,
2013-01-10 16:16:00,41.8,21.0,30.40,West,269,9.0,12.0,43,0.00,,CLR,0.00,VWS V14.00,2013-01-10 21:16:00,
2013-01-10 16:21:00,41.5,20.7,30.40,NW,310,5.0,11.0,43,0.00,,CLR,0.00,VWS V14.00,2013-01-10 21:21:00,
2013-01-10 16:26:00,41.5,21.2,30.40,WNW,285,5.0,11.0,44,0.00,,CLR,0.00,VWS V14.00,2013-01-10 21:26:00,
2013-01-10 16:31:00,41.2,21.0,30.40,West,281,5.0,12.0,44,0.00,,CLR,0.00,VWS V14.00,2013-01-10 21:31:00,
2013-01-10 16:36:00,41.1,20.9,30.40,WNW,293,4.0,9.0,44,0.00,,CLR,0.00,VWS V14.00,2013-01-10 21:36:00,
2013-01-10 16:41:00,40.9,21.2,30.40,NW,310,6.0,6.0,45,0.00,,CLR,0.00,VWS V14.00,2013-01-10 21:41:00,
2013-01-10 16:46:00,40.6,21.5,30.41,West,281,9.0,10.0,46,0.00,,CLR,0.00,VWS V14.00,2013-01-10 21:46:00,
2013-01-10 16:51:00,40.5,21.4,30.41,NW,314,7.0,12.0,46,0.00,,CLR,0.00,VWS V14.00,2013-01-10 21:51:00,
2013-01-10 16:57:00,40.2,21.1,30.41,WNW,288,5.0,10.0,46,0.00,,CLR,0.00,VWS V14.00,2013-01-10 21:57:00,
2013-01-10 17:02:00,40.1,21.0,30.41,WNW,300,3.0,6.0,46,0.00,,CLR,0.00,VWS V14.00,2013-01-10 22:02:00,
2013-01-10 17:07:00,40.1,21.0,30.41,WNW,300,13.0,13.0,46,0.00,,CLR,0.00,VWS V14.00,2013-01-10 22:07:00,
2013-01-10 17:12:00,39.9,21.3,30.41,NW,306,0.0,6.0,47,0.00,,CLR,0.00,VWS V14.00,2013-01-10 22:12:00,
2013-01-10 17:17:00,39.8,21.2,30.42,NNW,336,4.0,9.0,47,0.00,,CLR,0.00,VWS V14.00,2013-01-10 22:17:00,
2013-01-10 17:22:00,39.6,21.5,30.42,WNW,297,2.0,7.0,48,0.00,,CLR,0.00,VWS V14.00,2013-01-10 22:22:00,
2013-01-10 17:27:00,39.5,21.5,30.42,WNW,303,0.0,2.0,48,0.00,,CLR,0.00,VWS V14.00,2013-01-10 22:27:00,
2013-01-10 17:32:00,39.2,21.7,30.42,NE,43,2.0,4.0,49,0.00,,CLR,0.00,VWS V14.00,2013-01-10 22:32:00,
2013-01-10 17:37:00,39.1,21.6,30.42,NW,316,1.0,5.0,49,0.00,,CLR,0.00,VWS V14.00,2013-01-10 22:37:00,
2013-01-10 17:42:00,38.9,21.4,30.42,NNW,345,0.0,5.0,49,0.00,,CLR,0.00,VWS V14.00,2013-01-10 22:42:00,
2013-01-10 17:47:00,38.8,21.8,30.43,North,360,2.0,3.0,50,0.00,,CLR,0.00,VWS V14.00,2013-01-10 22:47:00,
2013-01-10 17:52:00,38.6,21.6,30.43,NNE,24,0.0,3.0,50,0.00,,CLR,0.00,VWS V14.00,2013-01-10 22:52:00,
2013-01-10 17:57:00,38.5,21.5,30.43,North,5,1.0,2.0,50,0.00,,CLR,0.00,VWS V14.00,2013-01-10 22:57:00,
2013-01-10 18:02:00,38.3,21.8,30.43,NNW,342,0.0,0.0,51,0.00,,CLR,0.00,VWS V14.00,2013-01-10 23:02:00,
2013-01-10 18:07:00,38.2,21.7,30.43,NNW,342,0.0,1.0,51,0.00,,CLR,0.00,VWS V14.00,2013-01-10 23:07:00,
2013-01-10 18:12:00,38.0,21.5,30.43,NNW,342,1.0,3.0,51,0.00,,CLR,0.00,VWS V14.00,2013-01-10 23:12:00,
2013-01-10 18:17:00,37.9,21.9,30.43,North,5,2.0,5.0,52,0.00,,CLR,0.00,VWS V14.00,2013-01-10 23:17:00,
2013-01-10 18:22:00,37.8,21.8,30.43,NW,321,1.0,7.0,52,0.00,,CLR,0.00,VWS V14.00,2013-01-10 23:22:00,
2013-01-10 18:27:00,37.8,21.8,30.43,North,350,0.0,3.0,52,0.00,,CLR,0.00,VWS V14.00,2013-01-10 23:27:00,
2013-01-10 18:32:00,37.8,21.8,30.43,North,5,4.0,6.0,52,0.00,,CLR,0.00,VWS V14.00,2013-01-10 23:32:00,
2013-01-10 18:37:00,37.6,21.6,30.43,NNW,331,1.0,3.0,52,0.00,,CLR,0.00,VWS V14.00,2013-01-10 23:37:00,
2013-01-10 18:42:00,37.6,21.6,30.43,NNW,333,4.0,4.0,52,0.00,,CLR,0.00,VWS V14.00,2013-01-10 23:42:00,
2013-01-10 18:48:00,37.6,21.6,30.45,North,5,3.0,3.0,52,0.00,,CLR,0.00,VWS V14.00,2013-01-10 23:48:00,
2013-01-10 18:53:00,37.5,21.9,30.45,NNE,26,0.0,1.0,53,0.00,,CLR,0.00,VWS V14.00,2013-01-10 23:53:00,
2013-01-10 18:58:00,37.2,21.7,30.45,NNE,26,0.0,2.0,53,0.00,,CLR,0.00,VWS V14.00,2013-01-10 23:58:00,
2013-01-10 19:03:00,37.2,21.7,30.46,NNE,26,1.0,2.0,53,0.00,,CLR,0.00,VWS V14.00,2013-01-11 00:03:00,
2013-01-10 19:08:00,37.0,21.9,30.46,NNE,22,0.0,3.0,54,0.00,,CLR,0.00,VWS V14.00,2013-01-11 00:08:00,
2013-01-10 19:13:00,36.8,21.7,30.46,NW,315,0.0,3.0,54,0.00,,CLR,0.00,VWS V14.00,2013-01-11 00:13:00,
2013-01-10 19:18:00,36.8,21.7,30.46,NW,313,0.0,1.0,54,0.00,,CLR,0.00,VWS V14.00,2013-01-11 00:18:00,
2013-01-10 19:23:00,36.8,21.7,30.46,NW,323,2.0,3.0,54,0.00,,CLR,0.00,VWS V14.00,2013-01-11 00:23:00,
2013-01-10 19:28:00,36.6,22.0,30.46,NW,310,3.0,4.0,55,0.00,,CLR,0.00,VWS V14.00,2013-01-11 00:28:00,
2013-01-10 19:33:00,36.6,22.0,30.46,NNE,13,1.0,4.0,55,0.00,,CLR,0.00,VWS V14.00,2013-01-11 00:33:00,
2013-01-10 19:38:00,36.6,22.0,30.46,North,360,1.0,3.0,55,0.00,,CLR,0.00,VWS V14.00,2013-01-11 00:38:00,
2013-01-10 19:43:00,36.5,21.9,30.46,NNW,348,2.0,5.0,55,0.00,,CLR,0.00,VWS V14.00,2013-01-11 00:43:00,
2013-01-10 19:48:00,36.5,21.9,30.46,NNW,341,4.0,5.0,55,0.00,,CLR,0.00,VWS V14.00,2013-01-11 00:48:00,
2013-01-10 19:53:00,36.5,22.3,30.46,North,5,1.0,7.0,56,0.00,,CLR,0.00,VWS V14.00,2013-01-11 00:53:00,
2013-01-10 19:58:00,36.5,22.3,30.46,NE,51,1.0,2.0,56,0.00,,CLR,0.00,VWS V14.00,2013-01-11 00:58:00,
2013-01-10 20:03:00,36.5,22.3,30.47,NNW,348,2.0,5.0,56,0.00,,CLR,0.00,VWS V14.00,2013-01-11 01:03:00,
2013-01-10 20:08:00,36.5,22.3,30.47,North,349,1.0,1.0,56,0.00,,CLR,0.00,VWS V14.00,2013-01-11 01:08:00,
2013-01-10 20:13:00,36.3,22.1,30.47,NW,315,1.0,3.0,56,0.00,,CLR,0.00,VWS V14.00,2013-01-11 01:13:00,
2013-01-10 20:18:00,36.3,22.1,30.47,NNW,336,1.0,4.0,56,0.00,,CLR,0.00,VWS V14.00,2013-01-11 01:18:00,
2013-01-10 20:23:00,36.2,22.0,30.47,NNW,348,2.0,3.0,56,0.00,,CLR,0.00,VWS V14.00,2013-01-11 01:23:00,
2013-01-10 20:28:00,36.2,22.0,30.47,NW,315,0.0,3.0,56,0.00,,CLR,0.00,VWS V14.00,2013-01-11 01:28:00,
2013-01-10 20:33:00,36.2,22.0,30.47,NNW,344,0.0,2.0,56,0.00,,CLR,0.00,VWS V14.00,2013-01-11 01:33:00,
2013-01-10 20:38:00,36.0,21.8,30.47,WNW,284,3.0,5.0,56,0.00,,CLR,0.00,VWS V14.00,2013-01-11 01:38:00,
2013-01-10 20:43:00,36.0,22.3,30.47,NW,306,5.0,6.0,57,0.00,,CLR,0.00,VWS V14.00,2013-01-11 01:43:00,
2013-01-10 20:48:00,35.9,22.2,30.47,NW,317,4.0,4.0,57,0.00,,CLR,0.00,VWS V14.00,2013-01-11 01:48:00,
2013-01-10 20:53:00,35.9,22.2,30.47,NNE,32,3.0,3.0,57,0.00,,CLR,0.00,VWS V14.00,2013-01-11 01:53:00,
2013-01-10 20:58:00,35.8,22.1,30.47,ENE,66,2.0,3.0,57,0.00,,CLR,0.00,VWS V14.00,2013-01-11 01:58:00,
2013-01-10 21:03:00,35.6,22.3,30.48,NW,325,0.0,3.0,58,0.00,,CLR,0.00,VWS V14.00,2013-01-11 02:03:00,
2013-01-10 21:09:00,35.6,22.3,30.48,NNW,329,0.0,3.0,58,0.00,,CLR,0.00,VWS V14.00,2013-01-11 02:09:00,
2013-01-10 21:14:00,35.5,22.2,30.48,NNW,339,2.0,3.0,58,0.00,,CLR,0.00,VWS V14.00,2013-01-11 02:14:00,
2013-01-10 21:19:00,35.3,22.0,30.48,NW,309,2.0,4.0,58,0.00,,CLR,0.00,VWS V14.00,2013-01-11 02:19:00,
2013-01-10 21:24:00,35.3,22.0,30.48,NW,309,2.0,4.0,58,0.00,,CLR,0.00,VWS V14.00,2013-01-11 02:24:00,
2013-01-10 21:29:00,35.3,22.4,30.48,NNW,344,0.0,3.0,59,0.00,,CLR,0.00,VWS V14.00,2013-01-11 02:29:00,
2013-01-10 21:34:00,35.2,22.3,30.48,NW,325,3.0,6.0,59,0.00,,CLR,0.00,VWS V14.00,2013-01-11 02:34:00,
2013-01-10 21:39:00,35.2,22.3,30.48,North,350,0.0,2.0,59,0.00,,CLR,0.00,VWS V14.00,2013-01-11 02:39:00,
2013-01-10 21:44:00,35.0,22.1,30.48,NNE,12,3.0,4.0,59,0.00,,CLR,0.00,VWS V14.00,2013-01-11 02:44:00,
2013-01-10 21:49:00,34.7,22.2,30.48,NNW,339,0.0,2.0,60,0.00,,CLR,0.00,VWS V14.00,2013-01-11 02:49:00,
2013-01-10 21:54:00,34.7,22.2,30.48,NW,325,1.0,3.0,60,0.00,,CLR,0.00,VWS V14.00,2013-01-11 02:54:00,
2013-01-10 21:59:00,34.6,22.2,30.48,North,355,3.0,3.0,60,0.00,,CLR,0.00,VWS V14.00,2013-01-11 02:59:00,
2013-01-10 22:04:00,34.4,22.0,30.48,NW,320,1.0,2.0,60,0.00,,CLR,0.00,VWS V14.00,2013-01-11 03:04:00,
2013-01-10 22:09:00,34.3,22.3,30.48,North,360,0.0,1.0,61,0.00,,CLR,0.00,VWS V14.00,2013-01-11 03:09:00,
2013-01-10 22:14:00,34.1,22.1,30.48,North,360,0.0,1.0,61,0.00,,CLR,0.00,VWS V14.00,2013-01-11 03:14:00,
2013-01-10 22:19:00,34.1,22.1,30.47,NNE,32,1.0,3.0,61,0.00,,CLR,0.00,VWS V14.00,2013-01-11 03:19:00,
2013-01-10 22:24:00,33.8,22.2,30.47,NE,47,1.0,2.0,62,0.00,,CLR,0.00,VWS V14.00,2013-01-11 03:24:00,
2013-01-10 22:29:00,33.7,22.1,30.47,NE,47,0.0,1.0,62,0.00,,CLR,0.00,VWS V14.00,2013-01-11 03:29:00,
2013-01-10 22:34:00,33.5,22.3,30.47,ENE,57,0.0,2.0,63,0.00,,CLR,0.00,VWS V14.00,2013-01-11 03:34:00,
2013-01-10 22:40:00,33.5,22.3,30.47,ENE,57,0.0,0.0,63,0.00,,CLR,0.00,VWS V14.00,2013-01-11 03:40:00,
2013-01-10 22:45:00,33.4,22.2,30.46,ENE,57,0.0,1.0,63,0.00,,CLR,0.00,VWS V14.00,2013-01-11 03:45:00,
2013-01-10 22:50:00,33.2,22.0,30.46,ENE,57,1.0,1.0,63,0.00,,CLR,0.00,VWS V14.00,2013-01-11 03:50:00,
2013-01-10 22:55:00,32.9,22.1,30.46,ENE,57,1.0,2.0,64,0.00,,CLR,0.00,VWS V14.00,2013-01-11 03:55:00,
2013-01-10 23:00:00,32.7,21.9,30.46,ENE,57,0.0,2.0,64,0.00,,CLR,0.00,VWS V14.00,2013-01-11 04:00:00,
2013-01-10 23:05:00,32.4,21.6,30.46,ENE,57,1.0,2.0,64,0.00,,CLR,0.00,VWS V14.00,2013-01-11 04:05:00,
2013-01-10 23:10:00,32.2,21.8,30.46,ENE,57,1.0,1.0,65,0.00,,CLR,0.00,VWS V14.00,2013-01-11 04:10:00,
2013-01-10 23:15:00,31.9,21.9,30.47,ENE,57,1.0,2.0,66,0.00,,CLR,0.00,VWS V14.00,2013-01-11 04:15:00,
2013-01-10 23:20:00,31.8,21.8,30.47,ENE,57,1.0,1.0,66,0.00,,CLR,0.00,VWS V14.00,2013-01-11 04:20:00,
2013-01-10 23:25:00,31.5,21.8,30.47,ENE,57,0.0,2.0,67,0.00,,CLR,0.00,VWS V14.00,2013-01-11 04:25:00,
2013-01-10 23:30:00,31.3,21.6,30.47,ENE,57,2.0,3.0,67,0.00,,CLR,0.00,VWS V14.00,2013-01-11 04:30:00,
2013-01-10 23:35:00,31.3,21.6,30.47,ENE,57,0.0,1.0,67,0.00,,CLR,0.00,VWS V14.00,2013-01-11 04:35:00,
2013-01-10 23:40:00,31.2,21.5,30.47,ENE,57,0.0,1.0,67,0.00,,CLR,0.00,VWS V14.00,2013-01-11 04:40:00,
2013-01-10 23:45:00,31.2,21.5,30.47,ENE,57,0.0,0.0,67,0.00,,CLR,0.00,VWS V14.00,2013-01-11 04:45:00,
2013-01-10 23:50:00,31.0,21.7,30.47,ENE,57,1.0,1.0,68,0.00,,CLR,0.00,VWS V14.00,2013-01-11 04:50:00,
2013-01-10 23:55:00,30.9,21.6,30.47,ENE,57,0.0,0.0,68,0.00,,CLR,0.00,VWS V14.00,2013-01-11 04:55:00,